sensor_id;sensor_type;location;lat;lon;timestamp;P1;durP1;ratioP1;P2;durP2;ratioP2
12480;SDS011;6305;48.398;11.762;2024-01-06T00:01:10;26.42;;;13.73;;
12480;SDS011;6305;48.398;11.762;2024-01-06T00:03:38;24.52;;;12.65;;
12480;SDS011;6305;48.398;11.762;2024-01-06T00:06:06;21.70;;;12.43;;
12480;SDS011;6305;48.398;11.762;2024-01-06T00:08:33;19.65;;;11.48;;
12480;SDS011;6305;48.398;11.762;2024-01-06T00:11:00;22.77;;;11.43;;
12480;SDS011;6305;48.398;11.762;2024-01-06T00:13:29;21.00;;;11.88;;
12480;SDS011;6305;48.398;11.762;2024-01-06T00:15:56;20.02;;;11.40;;
12480;SDS011;6305;48.398;11.762;2024-01-06T00:18:23;21.40;;;10.80;;
12480;SDS011;6305;48.398;11.762;2024-01-06T00:20:49;22.63;;;11.45;;
12480;SDS011;6305;48.398;11.762;2024-01-06T00:23:18;22.75;;;10.90;;
12480;SDS011;6305;48.398;11.762;2024-01-06T00:25:45;21.45;;;11.52;;
12480;SDS011;6305;48.398;11.762;2024-01-06T00:28:12;24.30;;;12.20;;
12480;SDS011;6305;48.398;11.762;2024-01-06T00:30:39;23.67;;;12.45;;
12480;SDS011;6305;48.398;11.762;2024-01-06T00:33:09;22.65;;;12.43;;
12480;SDS011;6305;48.398;11.762;2024-01-06T00:35:36;24.20;;;13.50;;
12480;SDS011;6305;48.398;11.762;2024-01-06T00:38:04;30.20;;;14.77;;
12480;SDS011;6305;48.398;11.762;2024-01-06T00:40:32;25.55;;;14.07;;
12480;SDS011;6305;48.398;11.762;2024-01-06T00:42:59;26.90;;;13.80;;
12480;SDS011;6305;48.398;11.762;2024-01-06T00:45:26;28.00;;;13.45;;
12480;SDS011;6305;48.398;11.762;2024-01-06T00:47:53;27.98;;;14.00;;
12480;SDS011;6305;48.398;11.762;2024-01-06T00:50:20;26.98;;;14.40;;
12480;SDS011;6305;48.398;11.762;2024-01-06T00:52:47;28.67;;;13.98;;
12480;SDS011;6305;48.398;11.762;2024-01-06T00:55:17;30.52;;;15.02;;
12480;SDS011;6305;48.398;11.762;2024-01-06T00:57:45;27.45;;;14.43;;
12480;SDS011;6305;48.398;11.762;2024-01-06T01:00:13;29.40;;;14.98;;
12480;SDS011;6305;48.398;11.762;2024-01-06T01:02:40;33.20;;;16.02;;
12480;SDS011;6305;48.398;11.762;2024-01-06T01:05:07;31.33;;;14.80;;
12480;SDS011;6305;48.398;11.762;2024-01-06T01:07:34;33.28;;;14.98;;
12480;SDS011;6305;48.398;11.762;2024-01-06T01:10:01;30.25;;;14.52;;
12480;SDS011;6305;48.398;11.762;2024-01-06T01:12:28;34.33;;;15.07;;
12480;SDS011;6305;48.398;11.762;2024-01-06T01:14:57;32.72;;;15.07;;
12480;SDS011;6305;48.398;11.762;2024-01-06T01:17:24;35.85;;;16.33;;
12480;SDS011;6305;48.398;11.762;2024-01-06T01:19:51;35.83;;;16.00;;
12480;SDS011;6305;48.398;11.762;2024-01-06T01:22:18;35.53;;;15.63;;
12480;SDS011;6305;48.398;11.762;2024-01-06T01:24:45;37.65;;;15.32;;
12480;SDS011;6305;48.398;11.762;2024-01-06T01:27:12;35.50;;;15.32;;
12480;SDS011;6305;48.398;11.762;2024-01-06T01:29:39;37.95;;;16.42;;
12480;SDS011;6305;48.398;11.762;2024-01-06T01:32:08;38.67;;;15.90;;
12480;SDS011;6305;48.398;11.762;2024-01-06T01:34:34;44.63;;;17.75;;
12480;SDS011;6305;48.398;11.762;2024-01-06T01:37:01;43.97;;;17.15;;
12480;SDS011;6305;48.398;11.762;2024-01-06T01:39:28;44.08;;;16.73;;
12480;SDS011;6305;48.398;11.762;2024-01-06T01:41:55;43.38;;;17.33;;
12480;SDS011;6305;48.398;11.762;2024-01-06T01:44:22;42.70;;;17.60;;
12480;SDS011;6305;48.398;11.762;2024-01-06T01:46:49;43.17;;;17.20;;
12480;SDS011;6305;48.398;11.762;2024-01-06T01:49:17;46.17;;;17.27;;
12480;SDS011;6305;48.398;11.762;2024-01-06T01:51:45;48.78;;;18.27;;
12480;SDS011;6305;48.398;11.762;2024-01-06T01:54:13;50.65;;;17.45;;
12480;SDS011;6305;48.398;11.762;2024-01-06T01:56:40;42.13;;;16.75;;
12480;SDS011;6305;48.398;11.762;2024-01-06T01:59:09;44.08;;;16.55;;
12480;SDS011;6305;48.398;11.762;2024-01-06T02:01:38;50.40;;;17.95;;
12480;SDS011;6305;48.398;11.762;2024-01-06T02:04:05;50.05;;;18.42;;
12480;SDS011;6305;48.398;11.762;2024-01-06T02:06:34;51.03;;;18.42;;
12480;SDS011;6305;48.398;11.762;2024-01-06T02:09:01;51.30;;;18.80;;
12480;SDS011;6305;48.398;11.762;2024-01-06T02:11:28;56.47;;;20.08;;
12480;SDS011;6305;48.398;11.762;2024-01-06T02:13:55;58.33;;;21.42;;
12480;SDS011;6305;48.398;11.762;2024-01-06T02:16:22;55.35;;;21.92;;
12480;SDS011;6305;48.398;11.762;2024-01-06T02:18:49;54.50;;;19.83;;
12480;SDS011;6305;48.398;11.762;2024-01-06T02:21:16;51.53;;;19.58;;
12480;SDS011;6305;48.398;11.762;2024-01-06T02:23:46;55.15;;;20.33;;
12480;SDS011;6305;48.398;11.762;2024-01-06T02:26:14;56.25;;;20.65;;
12480;SDS011;6305;48.398;11.762;2024-01-06T02:28:42;60.85;;;20.25;;
12480;SDS011;6305;48.398;11.762;2024-01-06T02:31:12;56.75;;;20.60;;
12480;SDS011;6305;48.398;11.762;2024-01-06T02:33:39;54.90;;;20.77;;
12480;SDS011;6305;48.398;11.762;2024-01-06T02:36:06;53.47;;;20.65;;
12480;SDS011;6305;48.398;11.762;2024-01-06T02:38:33;51.58;;;20.95;;
12480;SDS011;6305;48.398;11.762;2024-01-06T02:41:02;55.88;;;21.02;;
12480;SDS011;6305;48.398;11.762;2024-01-06T02:43:29;55.13;;;20.67;;
12480;SDS011;6305;48.398;11.762;2024-01-06T02:45:56;52.00;;;20.55;;
12480;SDS011;6305;48.398;11.762;2024-01-06T02:48:23;50.17;;;19.55;;
12480;SDS011;6305;48.398;11.762;2024-01-06T02:50:50;49.67;;;20.35;;
12480;SDS011;6305;48.398;11.762;2024-01-06T02:53:17;59.50;;;21.20;;
12480;SDS011;6305;48.398;11.762;2024-01-06T02:55:44;56.58;;;21.05;;
12480;SDS011;6305;48.398;11.762;2024-01-06T02:58:12;52.63;;;20.08;;
12480;SDS011;6305;48.398;11.762;2024-01-06T03:00:39;48.05;;;19.05;;
12480;SDS011;6305;48.398;11.762;2024-01-06T03:03:06;45.55;;;18.50;;
12480;SDS011;6305;48.398;11.762;2024-01-06T03:05:33;44.88;;;17.95;;
12480;SDS011;6305;48.398;11.762;2024-01-06T03:08:02;47.40;;;17.77;;
12480;SDS011;6305;48.398;11.762;2024-01-06T03:10:29;40.53;;;15.82;;
12480;SDS011;6305;48.398;11.762;2024-01-06T03:12:56;33.15;;;14.13;;
12480;SDS011;6305;48.398;11.762;2024-01-06T03:15:24;34.90;;;14.18;;
12480;SDS011;6305;48.398;11.762;2024-01-06T03:17:51;33.60;;;13.23;;
12480;SDS011;6305;48.398;11.762;2024-01-06T03:20:18;26.60;;;11.38;;
12480;SDS011;6305;48.398;11.762;2024-01-06T03:22:46;27.40;;;10.63;;
12480;SDS011;6305;48.398;11.762;2024-01-06T03:25:13;24.58;;;10.60;;
12480;SDS011;6305;48.398;11.762;2024-01-06T03:27:40;24.25;;;8.82;;
12480;SDS011;6305;48.398;11.762;2024-01-06T03:30:07;22.90;;;9.32;;
12480;SDS011;6305;48.398;11.762;2024-01-06T03:32:36;18.38;;;8.32;;
12480;SDS011;6305;48.398;11.762;2024-01-06T03:35:04;19.08;;;7.85;;
12480;SDS011;6305;48.398;11.762;2024-01-06T03:37:32;15.75;;;7.65;;
12480;SDS011;6305;48.398;11.762;2024-01-06T03:39:59;18.02;;;7.60;;
12480;SDS011;6305;48.398;11.762;2024-01-06T03:42:26;16.17;;;7.05;;
12480;SDS011;6305;48.398;11.762;2024-01-06T03:44:53;15.80;;;6.78;;
12480;SDS011;6305;48.398;11.762;2024-01-06T03:47:20;15.38;;;6.53;;
12480;SDS011;6305;48.398;11.762;2024-01-06T03:49:48;16.23;;;7.38;;
12480;SDS011;6305;48.398;11.762;2024-01-06T03:52:15;15.05;;;6.93;;
12480;SDS011;6305;48.398;11.762;2024-01-06T03:54:42;14.75;;;7.28;;
12480;SDS011;6305;48.398;11.762;2024-01-06T03:57:09;16.67;;;7.05;;
12480;SDS011;6305;48.398;11.762;2024-01-06T03:59:36;16.77;;;6.30;;
12480;SDS011;6305;48.398;11.762;2024-01-06T04:02:03;13.52;;;6.10;;
12480;SDS011;6305;48.398;11.762;2024-01-06T04:04:30;13.85;;;6.50;;
12480;SDS011;6305;48.398;11.762;2024-01-06T04:06:58;10.30;;;5.75;;
12480;SDS011;6305;48.398;11.762;2024-01-06T04:09:26;10.85;;;6.15;;
12480;SDS011;6305;48.398;11.762;2024-01-06T04:11:53;12.77;;;6.32;;
12480;SDS011;6305;48.398;11.762;2024-01-06T04:14:20;10.27;;;5.82;;
12480;SDS011;6305;48.398;11.762;2024-01-06T04:16:47;12.90;;;5.65;;
12480;SDS011;6305;48.398;11.762;2024-01-06T04:19:14;10.80;;;5.55;;
12480;SDS011;6305;48.398;11.762;2024-01-06T04:21:41;11.82;;;5.20;;
12480;SDS011;6305;48.398;11.762;2024-01-06T04:24:09;11.32;;;5.95;;
12480;SDS011;6305;48.398;11.762;2024-01-06T04:26:37;11.32;;;5.50;;
12480;SDS011;6305;48.398;11.762;2024-01-06T04:29:04;11.13;;;5.63;;
12480;SDS011;6305;48.398;11.762;2024-01-06T04:31:31;13.65;;;6.18;;
12480;SDS011;6305;48.398;11.762;2024-01-06T04:33:57;14.70;;;5.93;;
12480;SDS011;6305;48.398;11.762;2024-01-06T04:36:24;11.25;;;5.50;;
12480;SDS011;6305;48.398;11.762;2024-01-06T04:38:51;10.13;;;5.43;;
12480;SDS011;6305;48.398;11.762;2024-01-06T04:41:19;8.93;;;4.95;;
12480;SDS011;6305;48.398;11.762;2024-01-06T04:43:47;7.90;;;3.90;;
12480;SDS011;6305;48.398;11.762;2024-01-06T04:46:14;10.00;;;4.60;;
12480;SDS011;6305;48.398;11.762;2024-01-06T04:48:40;8.73;;;4.85;;
12480;SDS011;6305;48.398;11.762;2024-01-06T04:51:08;8.07;;;4.60;;
12480;SDS011;6305;48.398;11.762;2024-01-06T04:53:36;10.15;;;5.68;;
12480;SDS011;6305;48.398;11.762;2024-01-06T04:56:04;13.05;;;6.65;;
12480;SDS011;6305;48.398;11.762;2024-01-06T04:58:32;12.25;;;6.75;;
12480;SDS011;6305;48.398;11.762;2024-01-06T05:01:00;13.50;;;7.45;;
12480;SDS011;6305;48.398;11.762;2024-01-06T05:03:27;22.63;;;9.77;;
12480;SDS011;6305;48.398;11.762;2024-01-06T05:05:54;23.77;;;10.38;;
12480;SDS011;6305;48.398;11.762;2024-01-06T05:08:21;24.10;;;10.18;;
12480;SDS011;6305;48.398;11.762;2024-01-06T05:10:51;25.55;;;11.90;;
12480;SDS011;6305;48.398;11.762;2024-01-06T05:13:19;23.50;;;12.23;;
12480;SDS011;6305;48.398;11.762;2024-01-06T05:15:47;30.30;;;13.05;;
12480;SDS011;6305;48.398;11.762;2024-01-06T05:18:14;29.77;;;12.15;;
12480;SDS011;6305;48.398;11.762;2024-01-06T05:20:42;26.33;;;12.90;;
12480;SDS011;6305;48.398;11.762;2024-01-06T05:23:09;28.10;;;12.75;;
12480;SDS011;6305;48.398;11.762;2024-01-06T05:25:36;28.27;;;13.00;;
12480;SDS011;6305;48.398;11.762;2024-01-06T05:28:03;26.80;;;12.88;;
12480;SDS011;6305;48.398;11.762;2024-01-06T05:30:30;25.13;;;12.40;;
12480;SDS011;6305;48.398;11.762;2024-01-06T05:32:58;27.38;;;12.85;;
12480;SDS011;6305;48.398;11.762;2024-01-06T05:35:25;25.50;;;12.68;;
12480;SDS011;6305;48.398;11.762;2024-01-06T05:37:52;23.48;;;12.45;;
12480;SDS011;6305;48.398;11.762;2024-01-06T05:40:19;27.17;;;12.77;;
12480;SDS011;6305;48.398;11.762;2024-01-06T05:42:46;26.40;;;12.50;;
12480;SDS011;6305;48.398;11.762;2024-01-06T05:45:14;23.90;;;12.50;;
12480;SDS011;6305;48.398;11.762;2024-01-06T05:47:41;26.95;;;12.98;;
12480;SDS011;6305;48.398;11.762;2024-01-06T05:50:09;21.95;;;12.50;;
12480;SDS011;6305;48.398;11.762;2024-01-06T05:52:37;24.50;;;11.00;;
12480;SDS011;6305;48.398;11.762;2024-01-06T05:55:04;23.42;;;9.65;;
12480;SDS011;6305;48.398;11.762;2024-01-06T05:57:31;20.80;;;9.60;;
12480;SDS011;6305;48.398;11.762;2024-01-06T05:59:58;17.80;;;9.65;;
12480;SDS011;6305;48.398;11.762;2024-01-06T06:02:25;17.90;;;9.13;;
12480;SDS011;6305;48.398;11.762;2024-01-06T06:04:53;17.77;;;8.65;;
12480;SDS011;6305;48.398;11.762;2024-01-06T06:07:21;17.33;;;8.88;;
12480;SDS011;6305;48.398;11.762;2024-01-06T06:09:48;16.17;;;8.53;;
12480;SDS011;6305;48.398;11.762;2024-01-06T06:12:15;17.70;;;8.30;;
12480;SDS011;6305;48.398;11.762;2024-01-06T06:14:42;18.50;;;8.90;;
12480;SDS011;6305;48.398;11.762;2024-01-06T06:17:09;14.32;;;7.72;;
12480;SDS011;6305;48.398;11.762;2024-01-06T06:19:36;19.23;;;9.18;;
12480;SDS011;6305;48.398;11.762;2024-01-06T06:22:03;17.10;;;8.32;;
12480;SDS011;6305;48.398;11.762;2024-01-06T06:24:31;15.02;;;8.43;;
12480;SDS011;6305;48.398;11.762;2024-01-06T06:26:58;18.03;;;9.13;;
12480;SDS011;6305;48.398;11.762;2024-01-06T06:29:25;15.67;;;8.47;;
12480;SDS011;6305;48.398;11.762;2024-01-06T06:31:54;14.38;;;7.85;;
12480;SDS011;6305;48.398;11.762;2024-01-06T06:34:21;16.45;;;8.15;;
12480;SDS011;6305;48.398;11.762;2024-01-06T06:36:48;17.93;;;8.20;;
12480;SDS011;6305;48.398;11.762;2024-01-06T06:39:15;14.87;;;8.03;;
12480;SDS011;6305;48.398;11.762;2024-01-06T06:41:45;19.48;;;8.30;;
12480;SDS011;6305;48.398;11.762;2024-01-06T06:44:12;15.43;;;8.03;;
12480;SDS011;6305;48.398;11.762;2024-01-06T06:46:39;13.37;;;7.17;;
12480;SDS011;6305;48.398;11.762;2024-01-06T06:49:06;16.87;;;7.87;;
12480;SDS011;6305;48.398;11.762;2024-01-06T06:51:32;17.20;;;9.00;;
12480;SDS011;6305;48.398;11.762;2024-01-06T06:54:00;14.88;;;8.00;;
12480;SDS011;6305;48.398;11.762;2024-01-06T06:56:26;16.67;;;8.10;;
12480;SDS011;6305;48.398;11.762;2024-01-06T06:58:55;12.63;;;6.83;;
12480;SDS011;6305;48.398;11.762;2024-01-06T07:01:22;16.53;;;7.33;;
12480;SDS011;6305;48.398;11.762;2024-01-06T07:03:49;15.03;;;7.33;;
12480;SDS011;6305;48.398;11.762;2024-01-06T07:06:15;14.43;;;7.57;;
12480;SDS011;6305;48.398;11.762;2024-01-06T07:08:43;12.80;;;6.57;;
12480;SDS011;6305;48.398;11.762;2024-01-06T07:11:09;12.27;;;7.20;;
12480;SDS011;6305;48.398;11.762;2024-01-06T07:13:40;16.63;;;7.87;;
12480;SDS011;6305;48.398;11.762;2024-01-06T07:16:08;16.77;;;8.63;;
12480;SDS011;6305;48.398;11.762;2024-01-06T07:18:35;17.55;;;8.68;;
12480;SDS011;6305;48.398;11.762;2024-01-06T07:21:02;17.77;;;10.17;;
12480;SDS011;6305;48.398;11.762;2024-01-06T07:23:31;16.60;;;8.77;;
12480;SDS011;6305;48.398;11.762;2024-01-06T07:25:58;18.27;;;8.47;;
12480;SDS011;6305;48.398;11.762;2024-01-06T07:28:25;19.20;;;8.35;;
12480;SDS011;6305;48.398;11.762;2024-01-06T07:30:53;14.30;;;7.77;;
12480;SDS011;6305;48.398;11.762;2024-01-06T07:33:21;15.57;;;8.87;;
12480;SDS011;6305;48.398;11.762;2024-01-06T07:35:50;15.60;;;8.33;;
12480;SDS011;6305;48.398;11.762;2024-01-06T07:38:17;14.10;;;7.40;;
12480;SDS011;6305;48.398;11.762;2024-01-06T07:40:44;16.37;;;7.57;;
12480;SDS011;6305;48.398;11.762;2024-01-06T07:43:11;12.07;;;7.47;;
12480;SDS011;6305;48.398;11.762;2024-01-06T07:45:40;13.00;;;7.60;;
12480;SDS011;6305;48.398;11.762;2024-01-06T07:48:07;16.50;;;7.93;;
12480;SDS011;6305;48.398;11.762;2024-01-06T07:50:36;14.17;;;9.10;;
12480;SDS011;6305;48.398;11.762;2024-01-06T07:53:03;17.00;;;8.90;;
12480;SDS011;6305;48.398;11.762;2024-01-06T07:55:30;17.63;;;8.07;;
12480;SDS011;6305;48.398;11.762;2024-01-06T07:57:57;13.83;;;8.20;;
12480;SDS011;6305;48.398;11.762;2024-01-06T08:00:24;13.23;;;7.77;;
12480;SDS011;6305;48.398;11.762;2024-01-06T08:02:51;13.25;;;7.82;;
12480;SDS011;6305;48.398;11.762;2024-01-06T08:05:18;14.80;;;7.77;;
12480;SDS011;6305;48.398;11.762;2024-01-06T08:07:47;14.38;;;7.60;;
12480;SDS011;6305;48.398;11.762;2024-01-06T08:10:14;15.27;;;6.70;;
12480;SDS011;6305;48.398;11.762;2024-01-06T08:12:41;12.65;;;7.47;;
12480;SDS011;6305;48.398;11.762;2024-01-06T08:15:10;11.98;;;7.03;;
12480;SDS011;6305;48.398;11.762;2024-01-06T08:17:37;12.43;;;7.15;;
12480;SDS011;6305;48.398;11.762;2024-01-06T08:20:06;11.73;;;6.93;;
12480;SDS011;6305;48.398;11.762;2024-01-06T08:22:33;10.83;;;7.07;;
12480;SDS011;6305;48.398;11.762;2024-01-06T08:25:02;15.00;;;7.20;;
12480;SDS011;6305;48.398;11.762;2024-01-06T08:27:31;12.07;;;6.37;;
12480;SDS011;6305;48.398;11.762;2024-01-06T08:29:58;14.60;;;6.95;;
12480;SDS011;6305;48.398;11.762;2024-01-06T08:32:25;16.10;;;7.07;;
12480;SDS011;6305;48.398;11.762;2024-01-06T08:34:52;14.07;;;6.73;;
12480;SDS011;6305;48.398;11.762;2024-01-06T08:37:19;11.07;;;6.60;;
12480;SDS011;6305;48.398;11.762;2024-01-06T08:39:46;9.57;;;5.97;;
12480;SDS011;6305;48.398;11.762;2024-01-06T08:42:15;12.77;;;6.40;;
12480;SDS011;6305;48.398;11.762;2024-01-06T08:44:42;13.53;;;6.83;;
12480;SDS011;6305;48.398;11.762;2024-01-06T08:47:09;11.17;;;6.93;;
12480;SDS011;6305;48.398;11.762;2024-01-06T08:49:37;10.00;;;6.35;;
12480;SDS011;6305;48.398;11.762;2024-01-06T08:52:04;14.25;;;7.25;;
12480;SDS011;6305;48.398;11.762;2024-01-06T08:54:31;11.05;;;6.63;;
12480;SDS011;6305;48.398;11.762;2024-01-06T08:56:58;11.95;;;7.05;;
12480;SDS011;6305;48.398;11.762;2024-01-06T08:59:27;13.52;;;7.07;;
12480;SDS011;6305;48.398;11.762;2024-01-06T09:01:54;13.25;;;7.00;;
12480;SDS011;6305;48.398;11.762;2024-01-06T09:04:22;10.23;;;6.40;;
12480;SDS011;6305;48.398;11.762;2024-01-06T09:06:49;10.82;;;5.78;;
12480;SDS011;6305;48.398;11.762;2024-01-06T09:09:16;11.68;;;6.57;;
12480;SDS011;6305;48.398;11.762;2024-01-06T09:11:43;10.32;;;6.28;;
12480;SDS011;6305;48.398;11.762;2024-01-06T09:14:09;12.32;;;6.05;;
12480;SDS011;6305;48.398;11.762;2024-01-06T09:16:38;13.55;;;7.03;;
12480;SDS011;6305;48.398;11.762;2024-01-06T09:19:05;11.25;;;5.95;;
12480;SDS011;6305;48.398;11.762;2024-01-06T09:21:32;11.68;;;5.68;;
12480;SDS011;6305;48.398;11.762;2024-01-06T09:24:01;9.57;;;5.72;;
12480;SDS011;6305;48.398;11.762;2024-01-06T09:26:31;7.78;;;5.72;;
12480;SDS011;6305;48.398;11.762;2024-01-06T09:28:59;8.30;;;5.40;;
12480;SDS011;6305;48.398;11.762;2024-01-06T09:31:26;12.20;;;5.57;;
12480;SDS011;6305;48.398;11.762;2024-01-06T09:33:54;11.20;;;5.95;;
12480;SDS011;6305;48.398;11.762;2024-01-06T09:36:21;10.25;;;5.47;;
12480;SDS011;6305;48.398;11.762;2024-01-06T09:38:48;10.77;;;6.00;;
12480;SDS011;6305;48.398;11.762;2024-01-06T09:41:15;8.82;;;4.93;;
12480;SDS011;6305;48.398;11.762;2024-01-06T09:43:43;10.80;;;5.55;;
12480;SDS011;6305;48.398;11.762;2024-01-06T09:46:10;11.93;;;5.47;;
12480;SDS011;6305;48.398;11.762;2024-01-06T09:48:42;11.05;;;5.15;;
12480;SDS011;6305;48.398;11.762;2024-01-06T09:51:12;14.73;;;5.65;;
12480;SDS011;6305;48.398;11.762;2024-01-06T09:53:42;11.65;;;5.70;;
12480;SDS011;6305;48.398;11.762;2024-01-06T09:56:16;9.85;;;5.40;;
12480;SDS011;6305;48.398;11.762;2024-01-06T09:58:43;10.75;;;5.75;;
12480;SDS011;6305;48.398;11.762;2024-01-06T10:01:11;11.75;;;5.28;;
12480;SDS011;6305;48.398;11.762;2024-01-06T10:03:40;12.27;;;5.43;;
12480;SDS011;6305;48.398;11.762;2024-01-06T10:06:07;11.25;;;5.30;;
12480;SDS011;6305;48.398;11.762;2024-01-06T10:08:36;12.90;;;6.10;;
12480;SDS011;6305;48.398;11.762;2024-01-06T10:11:05;11.45;;;5.93;;
12480;SDS011;6305;48.398;11.762;2024-01-06T10:13:33;10.95;;;5.95;;
12480;SDS011;6305;48.398;11.762;2024-01-06T10:16:00;12.23;;;6.35;;
12480;SDS011;6305;48.398;11.762;2024-01-06T10:18:27;12.10;;;6.43;;
12480;SDS011;6305;48.398;11.762;2024-01-06T10:20:55;9.68;;;6.78;;
12480;SDS011;6305;48.398;11.762;2024-01-06T10:23:22;11.80;;;6.22;;
12480;SDS011;6305;48.398;11.762;2024-01-06T10:25:52;9.93;;;6.22;;
12480;SDS011;6305;48.398;11.762;2024-01-06T10:28:20;12.10;;;5.88;;
12480;SDS011;6305;48.398;11.762;2024-01-06T10:30:48;9.70;;;5.40;;
12480;SDS011;6305;48.398;11.762;2024-01-06T10:33:18;6.53;;;5.05;;
12480;SDS011;6305;48.398;11.762;2024-01-06T10:35:45;8.65;;;5.32;;
12480;SDS011;6305;48.398;11.762;2024-01-06T10:38:12;11.13;;;5.55;;
12480;SDS011;6305;48.398;11.762;2024-01-06T10:40:45;9.73;;;6.32;;
12480;SDS011;6305;48.398;11.762;2024-01-06T10:43:25;9.48;;;5.78;;
12480;SDS011;6305;48.398;11.762;2024-01-06T10:45:53;12.10;;;6.47;;
12480;SDS011;6305;48.398;11.762;2024-01-06T10:48:24;11.05;;;5.78;;
12480;SDS011;6305;48.398;11.762;2024-01-06T10:50:52;13.23;;;6.57;;
12480;SDS011;6305;48.398;11.762;2024-01-06T10:53:21;9.75;;;6.38;;
12480;SDS011;6305;48.398;11.762;2024-01-06T10:55:49;15.23;;;6.53;;
12480;SDS011;6305;48.398;11.762;2024-01-06T10:58:18;12.18;;;7.10;;
12480;SDS011;6305;48.398;11.762;2024-01-06T11:00:45;9.85;;;5.90;;
12480;SDS011;6305;48.398;11.762;2024-01-06T11:03:14;10.60;;;6.10;;
12480;SDS011;6305;48.398;11.762;2024-01-06T11:05:41;10.73;;;6.28;;
12480;SDS011;6305;48.398;11.762;2024-01-06T11:08:08;10.27;;;5.38;;
12480;SDS011;6305;48.398;11.762;2024-01-06T11:10:36;11.20;;;6.80;;
12480;SDS011;6305;48.398;11.762;2024-01-06T11:13:10;12.20;;;6.63;;
12480;SDS011;6305;48.398;11.762;2024-01-06T11:15:43;9.98;;;6.88;;
12480;SDS011;6305;48.398;11.762;2024-01-06T11:21:19;9.77;;;6.93;;
12480;SDS011;6305;48.398;11.762;2024-01-06T11:26:45;9.63;;;6.18;;
12480;SDS011;6305;48.398;11.762;2024-01-06T11:29:17;10.35;;;6.20;;
12480;SDS011;6305;48.398;11.762;2024-01-06T11:34:53;9.77;;;6.70;;
12480;SDS011;6305;48.398;11.762;2024-01-06T11:37:25;11.18;;;6.20;;
12480;SDS011;6305;48.398;11.762;2024-01-06T11:40:01;13.90;;;6.18;;
12480;SDS011;6305;48.398;11.762;2024-01-06T11:42:31;8.88;;;6.18;;
12480;SDS011;6305;48.398;11.762;2024-01-06T11:45:01;13.57;;;6.18;;
12480;SDS011;6305;48.398;11.762;2024-01-06T11:47:31;10.13;;;6.30;;
12480;SDS011;6305;48.398;11.762;2024-01-06T11:49:59;10.95;;;6.35;;
12480;SDS011;6305;48.398;11.762;2024-01-06T11:52:29;10.15;;;6.07;;
12480;SDS011;6305;48.398;11.762;2024-01-06T11:54:57;13.02;;;6.50;;
12480;SDS011;6305;48.398;11.762;2024-01-06T11:57:25;12.05;;;6.32;;
12480;SDS011;6305;48.398;11.762;2024-01-06T11:59:52;12.55;;;6.60;;
12480;SDS011;6305;48.398;11.762;2024-01-06T12:02:20;11.27;;;6.72;;
12480;SDS011;6305;48.398;11.762;2024-01-06T12:04:49;10.45;;;6.75;;
12480;SDS011;6305;48.398;11.762;2024-01-06T12:07:18;11.77;;;6.03;;
12480;SDS011;6305;48.398;11.762;2024-01-06T12:09:47;9.52;;;6.22;;
12480;SDS011;6305;48.398;11.762;2024-01-06T12:12:15;8.98;;;6.10;;
12480;SDS011;6305;48.398;11.762;2024-01-06T12:14:42;10.10;;;6.10;;
12480;SDS011;6305;48.398;11.762;2024-01-06T12:17:10;10.40;;;6.43;;
12480;SDS011;6305;48.398;11.762;2024-01-06T12:19:39;9.25;;;6.38;;
12480;SDS011;6305;48.398;11.762;2024-01-06T12:22:11;9.57;;;5.57;;
12480;SDS011;6305;48.398;11.762;2024-01-06T12:24:39;9.73;;;6.30;;
12480;SDS011;6305;48.398;11.762;2024-01-06T12:27:07;7.68;;;5.80;;
12480;SDS011;6305;48.398;11.762;2024-01-06T12:29:37;12.00;;;6.22;;
12480;SDS011;6305;48.398;11.762;2024-01-06T12:32:05;10.88;;;5.82;;
12480;SDS011;6305;48.398;11.762;2024-01-06T12:34:33;13.43;;;6.40;;
12480;SDS011;6305;48.398;11.762;2024-01-06T12:37:00;10.00;;;6.07;;
12480;SDS011;6305;48.398;11.762;2024-01-06T12:39:29;9.60;;;5.70;;
12480;SDS011;6305;48.398;11.762;2024-01-06T12:41:57;9.43;;;6.03;;
12480;SDS011;6305;48.398;11.762;2024-01-06T12:44:26;11.85;;;6.38;;
12480;SDS011;6305;48.398;11.762;2024-01-06T12:46:53;12.52;;;6.68;;
12480;SDS011;6305;48.398;11.762;2024-01-06T12:49:20;10.40;;;6.13;;
12480;SDS011;6305;48.398;11.762;2024-01-06T12:51:47;10.50;;;6.00;;
12480;SDS011;6305;48.398;11.762;2024-01-06T12:54:15;8.95;;;5.88;;
12480;SDS011;6305;48.398;11.762;2024-01-06T12:56:44;10.13;;;6.55;;
12480;SDS011;6305;48.398;11.762;2024-01-06T12:59:11;11.05;;;6.70;;
12480;SDS011;6305;48.398;11.762;2024-01-06T13:01:38;13.13;;;6.68;;
12480;SDS011;6305;48.398;11.762;2024-01-06T13:04:05;8.40;;;6.53;;
12480;SDS011;6305;48.398;11.762;2024-01-06T13:06:32;9.65;;;6.38;;
12480;SDS011;6305;48.398;11.762;2024-01-06T13:09:00;9.30;;;6.20;;
12480;SDS011;6305;48.398;11.762;2024-01-06T13:11:31;10.20;;;6.67;;
12480;SDS011;6305;48.398;11.762;2024-01-06T13:14:00;12.00;;;6.63;;
12480;SDS011;6305;48.398;11.762;2024-01-06T13:16:27;12.68;;;7.10;;
12480;SDS011;6305;48.398;11.762;2024-01-06T13:18:54;11.60;;;6.88;;
12480;SDS011;6305;48.398;11.762;2024-01-06T13:21:21;12.40;;;7.47;;
12480;SDS011;6305;48.398;11.762;2024-01-06T13:23:49;12.60;;;7.40;;
12480;SDS011;6305;48.398;11.762;2024-01-06T13:26:16;13.73;;;6.97;;
12480;SDS011;6305;48.398;11.762;2024-01-06T13:28:43;13.20;;;7.57;;
12480;SDS011;6305;48.398;11.762;2024-01-06T13:31:12;9.57;;;7.20;;
12480;SDS011;6305;48.398;11.762;2024-01-06T13:33:40;11.48;;;6.57;;
12480;SDS011;6305;48.398;11.762;2024-01-06T13:36:07;12.38;;;7.97;;
12480;SDS011;6305;48.398;11.762;2024-01-06T13:38:34;11.05;;;7.85;;
12480;SDS011;6305;48.398;11.762;2024-01-06T13:41:01;11.25;;;7.47;;
12480;SDS011;6305;48.398;11.762;2024-01-06T13:43:29;10.98;;;7.68;;
12480;SDS011;6305;48.398;11.762;2024-01-06T13:45:57;11.80;;;7.00;;
12480;SDS011;6305;48.398;11.762;2024-01-06T13:48:25;11.65;;;6.93;;
12480;SDS011;6305;48.398;11.762;2024-01-06T13:50:52;10.40;;;7.25;;
12480;SDS011;6305;48.398;11.762;2024-01-06T13:53:19;11.18;;;7.18;;
12480;SDS011;6305;48.398;11.762;2024-01-06T13:55:46;9.23;;;7.00;;
12480;SDS011;6305;48.398;11.762;2024-01-06T13:58:14;10.32;;;7.72;;
12480;SDS011;6305;48.398;11.762;2024-01-06T14:00:42;12.18;;;8.20;;
12480;SDS011;6305;48.398;11.762;2024-01-06T14:03:09;10.70;;;7.73;;
12480;SDS011;6305;48.398;11.762;2024-01-06T14:05:37;11.60;;;7.53;;
12480;SDS011;6305;48.398;11.762;2024-01-06T14:08:05;13.73;;;7.77;;
12480;SDS011;6305;48.398;11.762;2024-01-06T14:10:32;10.82;;;7.93;;
12480;SDS011;6305;48.398;11.762;2024-01-06T14:13:00;14.03;;;7.80;;
12480;SDS011;6305;48.398;11.762;2024-01-06T14:15:27;10.23;;;7.03;;
12480;SDS011;6305;48.398;11.762;2024-01-06T14:17:56;11.10;;;7.55;;
12480;SDS011;6305;48.398;11.762;2024-01-06T14:20:24;16.27;;;8.67;;
12480;SDS011;6305;48.398;11.762;2024-01-06T14:22:55;11.77;;;8.52;;
12480;SDS011;6305;48.398;11.762;2024-01-06T14:25:22;12.90;;;8.13;;
12480;SDS011;6305;48.398;11.762;2024-01-06T14:27:49;16.45;;;9.38;;
12480;SDS011;6305;48.398;11.762;2024-01-06T14:30:16;16.02;;;7.93;;
12480;SDS011;6305;48.398;11.762;2024-01-06T14:32:45;14.30;;;8.75;;
12480;SDS011;6305;48.398;11.762;2024-01-06T14:35:12;16.93;;;9.00;;
12480;SDS011;6305;48.398;11.762;2024-01-06T14:37:39;12.85;;;9.30;;
12480;SDS011;6305;48.398;11.762;2024-01-06T14:40:08;13.55;;;8.55;;
12480;SDS011;6305;48.398;11.762;2024-01-06T14:42:37;15.77;;;9.50;;